Weather

Ora Tempo Temperatura Umidità Vento Precipitazioni
09:00 clear sky 14.0° 72% 4.69 km/h 0 mm
12:00 clear sky 15.2° 66% 1.65 km/h 0 mm
15:00 scattered clouds 16.1° 68% 1.42 km/h 0 mm
18:00 scattered clouds 15.5° 68% 4.08 km/h 0 mm
21:00 clear sky 13.3° 66% 5.05 km/h 0 mm
Ora Tempo Temperatura Umidità Vento Precipitazioni
00:00 clear sky 11.5° 69% 4.58 km/h 0 mm
03:00 clear sky 10.5° 71% 4.56 km/h 0 mm
06:00 clear sky 11.9° 66% 4.47 km/h 0 mm
09:00 clear sky 17.3° 50% 5.4 km/h 0 mm
12:00 clear sky 19.5° 48% 2.06 km/h 0 mm
15:00 clear sky 19.3° 52% 3.72 km/h 0 mm
18:00 scattered clouds 15.9° 63% 3.99 km/h 0 mm
21:00 clear sky 13.7° 65% 3.08 km/h 0 mm
Ora Tempo Temperatura Umidità Vento Precipitazioni
00:00 clear sky 12.5° 66% 1.92 km/h 0 mm
03:00 clear sky 11.5° 62% 2.08 km/h 0 mm
06:00 clear sky 12.5° 58% 1.46 km/h 0 mm
09:00 scattered clouds 15.5° 52% 1.25 km/h 0 mm
12:00 broken clouds 16.3° 57% 3.12 km/h 0 mm
15:00 broken clouds 16.7° 57% 2.87 km/h 0 mm
18:00 broken clouds 15.2° 68% 1.17 km/h 0 mm
21:00 overcast clouds 14.8° 65% 1.23 km/h 0 mm
Ora Tempo Temperatura Umidità Vento Precipitazioni
00:00 overcast clouds 12.8° 69% 2.14 km/h 0 mm
03:00 broken clouds 12.1° 71% 2.4 km/h 0 mm
06:00 broken clouds 13.4° 72% 3.11 km/h 0 mm
09:00 broken clouds 16.2° 69% 5.91 km/h 0 mm
12:00 broken clouds 17.2° 64% 7.19 km/h 0 mm
15:00 overcast clouds 16.9° 63% 6.66 km/h 0 mm
18:00 light rain 14.5° 78% 4.12 km/h 0.17 mm
21:00 light rain 13.5° 76% 2.63 km/h 0.15 mm
Ora Tempo Temperatura Umidità Vento Precipitazioni
00:00 light rain 14.0° 72% 3.56 km/h 0.12 mm
03:00 overcast clouds 14.0° 68% 3.58 km/h 0 mm
06:00 overcast clouds 14.3° 70% 3.59 km/h 0 mm
09:00 light rain 14.6° 85% 4.66 km/h 0.22 mm
12:00 light rain 15.6° 91% 6.15 km/h 0.66 mm
15:00 light rain 16.5° 86% 5.32 km/h 1.11 mm
18:00 light rain 15.4° 91% 4.51 km/h 0.10 mm
21:00 broken clouds 14.6° 92% 3.83 km/h 0 mm
Ora Tempo Temperatura Umidità Vento Precipitazioni
00:00 broken clouds 15.3° 92% 2.78 km/h 0 mm
03:00 light rain 14.8° 94% 5.46 km/h 0.13 mm
06:00 light rain 15.5° 93% 5.05 km/h 0.35 mm
Friday 23 April
Temp. max: 17.5°
Temp. min: 13.3°
Ora Tempo Temperatura Umidità Vento Precipitazioni
09:00 clear sky 14.0° 72% 4.69 km/h 0 mm
12:00 clear sky 15.2° 66% 1.65 km/h 0 mm
15:00 scattered clouds 16.1° 68% 1.42 km/h 0 mm
18:00 scattered clouds 15.5° 68% 4.08 km/h 0 mm
21:00 clear sky 13.3° 66% 5.05 km/h 0 mm
Saturday 24 April
Temp. max: 19.5°
Temp. min: 10.5°
Ora Tempo Temperatura Umidità Vento Precipitazioni
00:00 clear sky 11.5° 69% 4.58 km/h 0 mm
03:00 clear sky 10.5° 71% 4.56 km/h 0 mm
06:00 clear sky 11.9° 66% 4.47 km/h 0 mm
09:00 clear sky 17.3° 50% 5.4 km/h 0 mm
12:00 clear sky 19.5° 48% 2.06 km/h 0 mm
15:00 clear sky 19.3° 52% 3.72 km/h 0 mm
18:00 scattered clouds 15.9° 63% 3.99 km/h 0 mm
21:00 clear sky 13.7° 65% 3.08 km/h 0 mm
Sunday 25 April
Temp. max: 16.7°
Temp. min: 11.5°
Ora Tempo Temperatura Umidità Vento Precipitazioni
00:00 clear sky 12.5° 66% 1.92 km/h 0 mm
03:00 clear sky 11.5° 62% 2.08 km/h 0 mm
06:00 clear sky 12.5° 58% 1.46 km/h 0 mm
09:00 scattered clouds 15.5° 52% 1.25 km/h 0 mm
12:00 broken clouds 16.3° 57% 3.12 km/h 0 mm
15:00 broken clouds 16.7° 57% 2.87 km/h 0 mm
18:00 broken clouds 15.2° 68% 1.17 km/h 0 mm
21:00 overcast clouds 14.8° 65% 1.23 km/h 0 mm
Monday 26 April
Temp. max: 17.2°
Temp. min: 12.1°
Ora Tempo Temperatura Umidità Vento Precipitazioni
00:00 overcast clouds 12.8° 69% 2.14 km/h 0 mm
03:00 broken clouds 12.1° 71% 2.4 km/h 0 mm
06:00 broken clouds 13.4° 72% 3.11 km/h 0 mm
09:00 broken clouds 16.2° 69% 5.91 km/h 0 mm
12:00 broken clouds 17.2° 64% 7.19 km/h 0 mm
15:00 overcast clouds 16.9° 63% 6.66 km/h 0 mm
18:00 light rain 14.5° 78% 4.12 km/h 0.17 mm
21:00 light rain 13.5° 76% 2.63 km/h 0.15 mm
Tuesday 27 April
Temp. max: 16.5°
Temp. min: 14.0°
Ora Tempo Temperatura Umidità Vento Precipitazioni
00:00 light rain 14.0° 72% 3.56 km/h 0.12 mm
03:00 overcast clouds 14.0° 68% 3.58 km/h 0 mm
06:00 overcast clouds 14.3° 70% 3.59 km/h 0 mm
09:00 light rain 14.6° 85% 4.66 km/h 0.22 mm
12:00 light rain 15.6° 91% 6.15 km/h 0.66 mm
15:00 light rain 16.5° 86% 5.32 km/h 1.11 mm
18:00 light rain 15.4° 91% 4.51 km/h 0.10 mm
21:00 broken clouds 14.6° 92% 3.83 km/h 0 mm
Wednesday 28 April
Temp. max: 15.5°
Temp. min: 14.8°
Ora Tempo Temperatura Umidità Vento Precipitazioni
00:00 broken clouds 15.3° 92% 2.78 km/h 0 mm
03:00 light rain 14.8° 94% 5.46 km/h 0.13 mm
06:00 light rain 15.5° 93% 5.05 km/h 0.35 mm

Live Cam

VUOI RICEVERE PIÚ INFORMAZIONI SUI NOSTRI SERVIZI?

Usa la form di contatti sul sito o contattaci telefonicamente